Tiempo atmosférico en la estación meteorológica de Almazul, Soria (1000 m.)

Fecha
DESCASC
Temp. máxima en grados centígrados (hora)
DESCASC
Temp. mínima en grados centígrados (hora)
DESCASC
Temp. media en grados centígrados
DESCASC
Racha de viento máxima en m/sg (hora)
DESCASC
Velocidad máxima media en intervalos de 10 minutos(hora)
DESCASC
Precipitaciones diarias en mm
DESCASC
Precipitaciones de 00:00 a 06:00 en mm
DESCASC
Precipitaciones de 06:00 a 12:00 en mm
DESCASC
Precipitaciones de 12:00 a 18:00 en mm
DESCASC
Precipitaciones de 18:00 a 24:00 en mm
DESCASC
19-10-2017 13.9 (15:50) 6.8 (02:00) 10.3 10.28 (17:40) 7.78 (18:10) 0.2 0.2 0 0 0
18-10-2017 13.4 (13:40) 7.3 (21:30) 10.3 14.72 (11:00) 10.28 (10:50) 3.8 1 0.6 0.2 2
17-10-2017 19.9 (15:20) 7.4 (07:50) 13.6 14.17 (17:50) 10.83 (16:50) 0.8 0 0 0 0.8
16-10-2017 26 (17:10) 9.2 (07:10) 17.6 10.28 (20:00) 7.78 (20:00) 0 0 0 0 0
15-10-2017 28.2 (16:10) 8.5 (00:00) 18.4 10.83 (19:50) 7.5 (19:20) 0 0 0 0 0
14-10-2017 28.7 (17:00) 9.1 (00:00) 18.9 8.89 (19:20) 6.67 (19:20) 0 0 0 0 0
13-10-2017 28.1 (16:00) 8.7 (00:00) 18.4 11.11 (17:40) 6.39 (15:30) 0 0 0 0 0
12-10-2017 27.1 (15:20) 5.6 (00:00) 16.4 8.33 (17:00) 5.83 (20:20) 0 0 0 0 0
11-10-2017 26 (16:40) 5.3 (00:00) 15.7 8.06 (14:30) 5.28 (14:30) 0 0 0 0 0
10-10-2017 27.3 (17:40) 5.6 (00:00) 16.4 7.22 (20:10) 5.56 (20:20) 0 0 0 0 0
09-10-2017 24 (16:00) 6 (00:00) 15 8.33 (14:20) 5.28 (00:40) 0 0 0 0 0
08-10-2017 25.9 (16:30) 3.4 (00:00) 14.6 9.17 (19:40) 6.67 (22:40) 0 0 0 0 0
07-10-2017 24.7 (18:10) 5.6 (00:00) 15.2 13.89 (00:20) 11.11 (00:30) 0 0 0 0 0
06-10-2017 19.9 (16:40) 9.7 (00:00) 14.8 18.06 (19:50) 13.89 (20:00) 0 0 0 0 0
05-10-2017 29.7 (16:00) 8.7 (00:00) 19.2 14.44 (19:50) 11.11 (23:30) 0 0 0 0 0
04-10-2017 27.8 (16:50) 8.2 (00:00) 18 8.33 (16:10) 5 (15:00) 0 0 0 0 0
03-10-2017 26 (16:30) 8.4 (00:00) 17.2 13.33 (19:50) 9.72 (18:10) 0 0 0 0 0
02-10-2017 23.1 (15:30) 12.1 (00:00) 17.6 14.44 (15:50) 10.83 (15:40) 0 0 0 0 0
01-10-2017 20 (17:10) 10.6 (00:00) 15.3 12.78 (15:50) 7.78 (15:50) 0 0 0 0 0
30-09-2017 24.4 (16:20) 11.5 (00:00) 17.9 11.39 (17:20) 8.33 (17:30) 0 0 0 0 0
29-09-2017 27.9 (16:10) 9.4 (00:00) 18.6 8.33 (19:10) 5.56 (19:10) 0 0 0 0 0
28-09-2017 27.8 (17:20) 9.1 (00:00) 18.4 8.61 (20:40) 6.39 (20:20) 0 0 0 0 0
27-09-2017 26.4 (18:00) 7.7 (00:00) 17 10.28 (20:20) 6.67 (20:20) 0 0 0 0 0
26-09-2017 24.6 (18:40) 7.8 (00:00) 16.2 8.61 (01:00) 5.83 (20:00) 0 0 0 0 0
25-09-2017 21.9 (15:50) 11.8 (00:00) 16.8 16.67 (21:00) 12.5 (21:00) 0 0 0 0 0
24-09-2017 27.5 (17:00) 8.3 (00:00) 17.9 9.17 (16:00) 6.11 (14:10) 0 0 0 0 0
23-09-2017 26.3 (18:20) 6.7 (00:00) 16.5 8.89 (20:10) 6.94 (20:10) 0.2 0 0.2 0 0
22-09-2017 19.2 (14:50) 11.8 (00:00) 15.5 12.5 (09:30) 10 (09:30) 0 0 0 0 0
21-09-2017 27.7 (16:30) 6.6 (00:00) 17.2 9.72 (19:30) 6.67 (19:30) 0 0 0 0 0
20-09-2017 26.5 (17:30) 2.9 (00:00) 14.7 7.22 (15:50) 5.83 (20:20) 0 0 0 0 0

Gráficas

Temp. máximas Temp. mínimas Temp. medias Precipitaciones Rachas de viento máximas Velocidades máximas media en intervalos de 10 minutos

Datos horarios

Fecha y hora oficial Temperatura (ºC) Velocidad del viento (km/h) Dirección del viento Racha (km/h) Dirección de racha Precipitación (mm) Presión (hPa) Tendencia (hPa) Humedad (%)
2017-10-19 23:00:00 7.8 8 Norte 27 Noroeste 0 -- -- 84
2017-10-19 22:00:00 8.7 20 Noroeste 27 Noroeste 0 -- -- 81
2017-10-19 21:00:00 9.1 14 Norte 23 Noroeste 0 -- -- 79
2017-10-19 20:00:00 9.8 17 Noroeste 33 Noroeste 0 -- -- 75
2017-10-19 19:00:00 11.4 20 Noroeste 37 Noroeste 0 -- -- 68
2017-10-19 18:00:00 12.9 24 Noroeste 37 Noroeste 0 -- -- 66
2017-10-19 17:00:00 13.6 22 Noroeste 33 Noroeste 0 -- -- 65
2017-10-19 16:00:00 13.2 18 Noroeste 30 Noroeste 0 -- -- 62
2017-10-19 15:00:00 12.5 19 Noroeste 29 Noroeste 0 -- -- 72
2017-10-19 14:00:00 11.2 19 Noroeste 30 Noroeste 0 -- -- 76
2017-10-19 13:00:00 10.2 15 Noroeste 24 Noroeste 0 -- -- 79
2017-10-19 12:00:00 9.6 12 Noroeste 20 Norte 0 -- -- 78
2017-10-19 11:00:00 9.2 11 Noroeste 18 Norte 0 -- -- 82
2017-10-19 10:00:00 8.7 10 Norte 14 Norte 0 -- -- 89
2017-10-19 09:00:00 7.1 5 Norte 12 Norte 0 -- -- 94
2017-10-19 08:00:00 7.2 8 Norte 18 Noroeste 0 -- -- 93
2017-10-19 07:00:00 7.2 8 Noroeste 14 Noroeste 0 -- -- 94
2017-10-19 06:00:00 6.9 5 Oeste 10 Noroeste 0 -- -- 94
2017-10-19 05:00:00 7 3 Noroeste 12 Noroeste 0 -- -- 92
2017-10-19 04:00:00 7 8 Noroeste 15 Noroeste 0 -- -- 93
2017-10-19 03:00:00 6.9 9 Noroeste 17 Noroeste 0 -- -- 94
2017-10-19 02:00:00 6.8 12 Noroeste 24 Noroeste 0.2 -- -- 92
2017-10-19 01:00:00 7.3 12 Noroeste 20 Oeste 0 -- -- 90
2017-10-19 00:00:00 7.4 9 Noroeste 18 Oeste 0 -- -- 90
2017-10-18 23:00:00 7.5 13 Noroeste 27 Noroeste 0 -- -- 90
2017-10-18 22:00:00 7.3 11 Noroeste 27 Noroeste 0.4 -- -- 92
2017-10-18 21:00:00 7.7 18 Noroeste 32 Noroeste 0.6 -- -- 92
2017-10-18 20:00:00 8.7 14 Noroeste 24 Noroeste 0.2 -- -- 93
2017-10-18 19:00:00 9.8 9 Oeste 17 Oeste 0.8 -- -- 93
2017-10-18 18:00:00 10.6 14 Sudoeste 23 Oeste 0.2 -- -- 87
2017-10-18 17:00:00 11.8 12 Oeste 20 Oeste 0 -- -- 78
2017-10-18 16:00:00 11.9 12 Oeste 21 Oeste 0 -- -- 83
2017-10-18 15:00:00 12.1 12 Oeste 41 Oeste 0 -- -- 85
2017-10-18 14:00:00 12.3 23 Oeste 34 Oeste 0 -- -- 83
2017-10-18 13:00:00 11.5 29 Sudoeste 43 Sudoeste 0 -- -- 86
2017-10-18 12:00:00 11.1 27 Sudoeste 44 Sudoeste 0 -- -- 88
2017-10-18 11:00:00 11.7 37 Sudoeste 53 Sudoeste 0.2 -- -- 83
2017-10-18 10:00:00 12.2 21 Sur 31 Sur 0 -- -- 89
2017-10-18 09:00:00 11.5 14 Sur 19 Sur 0.2 -- -- 90
2017-10-18 08:00:00 11.2 13 Sur 18 Sur 0.2 -- -- 91
2017-10-18 07:00:00 11.5 11 Sur 22 Sudoeste 0 -- -- 90
2017-10-18 06:00:00 12.1 20 Sur 25 Sur 0.2 -- -- 88
2017-10-18 05:00:00 11.9 10 Sur 16 Sur 0 -- -- 90
2017-10-18 04:00:00 11.9 9 Sur 22 Sur 0.6 -- -- 92
2017-10-18 03:00:00 12.1 20 Sur 33 Sur 0 -- -- 91
2017-10-18 02:00:00 12.6 25 Sudoeste 32 Sudoeste 0 -- -- 86
2017-10-18 01:00:00 12.3 7 Sudeste 17 Sudoeste 0.2 -- -- 88
2017-10-18 00:00:00 13.1 12 Sur 30 Sudoeste 0.2 -- -- 83
2017-10-17 23:00:00 13.7 15 Sudoeste 19 Sudoeste 0 -- -- 78
2017-10-17 22:00:00 13.2 7 Sur 16 Sudeste 0 -- -- 81
2017-10-17 21:00:00 13 6 Sudeste 13 Noroeste 0.2 -- -- 85
2017-10-17 20:00:00 13.4 10 Noroeste 22 Noroeste 0.4 -- -- 83
2017-10-17 19:00:00 17.7 18 Oeste 41 Sudoeste 0 -- -- 52
2017-10-17 18:00:00 18.2 33 Sudoeste 51 Sudoeste 0 -- -- 51
2017-10-17 17:00:00 19.2 37 Sudoeste 50 Sudoeste 0 -- -- 47
2017-10-17 16:00:00 19.2 32 Sudoeste 42 Sudoeste 0 -- -- 46
2017-10-17 15:00:00 19.2 22 Sudoeste 32 Sudoeste 0 -- -- 44
2017-10-17 14:00:00 19.5 22 Sudoeste 31 Sudoeste 0 -- -- 44
2017-10-17 13:00:00 18.2 22 Sudoeste 37 Sudoeste 0 -- -- 45
2017-10-17 12:00:00 17.4 22 Sudoeste 34 Sudoeste 0 -- -- 42
2017-10-17 11:00:00 14.5 17 Sur 21 Sur 0 -- -- 59
2017-10-17 10:00:00 14.5 3 Sur 11 Sudeste 0 -- -- 66
2017-10-17 09:00:00 10.8 2 Sudeste 9 Este 0 -- -- 79
2017-10-17 08:00:00 7.6 2 Norte 6 Este 0 -- -- 89
2017-10-17 07:00:00 8.8 0 Calma 9 Norte 0 -- -- 84
2017-10-17 06:00:00 9.4 2 Sudeste 9 Sudeste 0 -- -- 81
2017-10-17 05:00:00 9.6 6 Norte 9 Este 0 -- -- 80
2017-10-17 04:00:00 11.8 6 Este 9 Sur 0 -- -- 72
2017-10-17 03:00:00 13.1 9 Sudeste 10 Sudeste 0 -- -- 68
2017-10-17 02:00:00 12.9 6 Sudeste 10 Sur 0 -- -- 65
2017-10-17 01:00:00 13.8 0 Calma 13 Sudeste 0 -- -- 62
2017-10-17 00:00:00 15 6 Sudeste 10 Sudeste 0 -- -- 57
2017-10-16 23:00:00 15.4 3 Sudoeste 28 Sudeste 0 -- -- 57
2017-10-16 22:00:00 16.1 6 Sur 22 Sudeste 0 -- -- 58
2017-10-16 21:00:00 16.6 23 Sudeste 32 Sudeste 0 -- -- 58
2017-10-16 20:00:00 17.9 28 Sudeste 37 Sudeste 0 -- -- 54
2017-10-16 19:00:00 20.7 22 Sudeste 30 Sudeste 0 -- -- 44
2017-10-16 18:00:00 24.3 17 Sudeste 24 Sudeste 0 -- -- 22
2017-10-16 17:00:00 25.6 10 Sudeste 27 Sur 0 -- -- 22
2017-10-16 16:00:00 24.7 15 Sur 27 Sur 0 -- -- 24
2017-10-16 15:00:00 23.3 12 Sur 26 Sur 0 -- -- 35
2017-10-16 14:00:00 22 15 Sur 26 Sur 0 -- -- 41
2017-10-16 13:00:00 20.2 18 Sudoeste 27 Sudoeste 0 -- -- 46
2017-10-16 12:00:00 19.3 16 Sur 23 Sur 0 -- -- 51
2017-10-16 11:00:00 17 9 Sur 17 Sur 0 -- -- 64
2017-10-16 10:00:00 14.1 6 Sudeste 13 Sur 0 -- -- 77
2017-10-16 09:00:00 11 10 Sur 13 Sudeste 0 -- -- 89
2017-10-16 08:00:00 10.5 4 Este 10 Sudeste 0 -- -- 93
2017-10-16 07:00:00 10 3 Sudeste 10 Sudeste 0 -- -- 84
2017-10-16 06:00:00 10.2 5 Norte 9 Norte 0 -- -- 90
2017-10-16 05:00:00 12.1 4 Sudeste 12 Sudeste 0 -- -- 85
2017-10-16 04:00:00 13 12 Sudeste 26 Sudeste 0 -- -- 83
2017-10-16 03:00:00 13 0 Calma 9 Sudeste 0 -- -- 82
2017-10-16 02:00:00 14.5 9 Sudeste 12 Este 0 -- -- 77
2017-10-16 01:00:00 14.5 7 Sudeste 11 Este 0 -- -- 77
2017-10-16 00:00:00 15.6 0 Calma 21 Sur 0 -- -- 70
2017-10-15 23:00:00 17.1 20 Sudeste 27 Sudeste 0 -- -- 65
2017-10-15 22:00:00 16.4 8 Sur 36 Sudeste 0 -- -- 70
2017-10-15 21:00:00 17 14 Sudeste 24 Sudeste 0 -- -- 70
2017-10-15 20:00:00 18 22 Sudeste 39 Sudeste 0 -- -- 65
2017-10-15 19:00:00 20.8 24 Sudeste 31 Sudeste 0 -- -- 54
2017-10-15 18:00:00 24.4 24 Sudeste 32 Sudeste 0 -- -- 42
2017-10-15 17:00:00 28 10 Sur 21 Sur 0 -- -- 26
2017-10-15 16:00:00 27.5 10 Sudoeste 22 Sur 0 -- -- 25
2017-10-15 15:00:00 26.4 13 Sudoeste 24 Sur 0 -- -- 28
2017-10-15 14:00:00 25.2 12 Sudoeste 21 Sudoeste 0 -- -- 33
2017-10-15 13:00:00 23.1 9 Sudoeste 20 Sudoeste 0 -- -- 41
2017-10-15 12:00:00 21 11 Sur 17 Sudoeste 0 -- -- 50
2017-10-15 11:00:00 17.8 8 Sur 10 Sur 0 -- -- 64
2017-10-15 10:00:00 14.9 0 Calma 12 Nordeste 0 -- -- 76
2017-10-15 09:00:00 9.8 0 Calma 9 Nordeste 0 -- -- 96
2017-10-15 08:00:00 9.4 2 Sudeste 5 Este 0 -- -- 96
2017-10-15 07:00:00 9.2 3 Nordeste 5 Norte 0 -- -- 96
2017-10-15 06:00:00 9.9 5 Nordeste 12 Nordeste 0 -- -- 92
2017-10-15 05:00:00 10.4 8 Nordeste 12 Norte 0 -- -- 94
2017-10-15 04:00:00 10.1 4 Norte 10 Nordeste 0 -- -- 90
2017-10-15 03:00:00 12 9 Nordeste 13 Norte 0 -- -- 89
2017-10-15 02:00:00 12.2 5 Norte 8 Norte 0 -- -- 84
2017-10-15 01:00:00 14 2 Norte 9 Este 0 -- -- 76
2017-10-15 00:00:00 15.7 2 Sudeste 10 Sudeste 0 -- -- 72
2017-10-14 23:00:00 16.3 5 Sudeste 24 Sudeste 0 -- -- 71
2017-10-14 22:00:00 17.1 14 Sudeste 23 Sudeste 0 -- -- 70
2017-10-14 21:00:00 18.3 20 Sudeste 28 Sudeste 0 -- -- 65
2017-10-14 20:00:00 18.6 22 Sudeste 32 Sudeste 0 -- -- 62
2017-10-14 19:00:00 25.6 13 Sudoeste 23 Sudoeste 0 -- -- 22
2017-10-14 18:00:00 27.1 16 Sudoeste 27 Sudoeste 0 -- -- 20
2017-10-14 17:00:00 28.7 9 Sudoeste 31 Sudoeste 0 -- -- 22
2017-10-14 16:00:00 27.1 17 Sur 27 Sur 0 -- -- 27
2017-10-14 15:00:00 26.1 15 Sudoeste 31 Sur 0 -- -- 28
2017-10-14 14:00:00 25.2 19 Sudoeste 27 Sudoeste 0 -- -- 30
2017-10-14 13:00:00 24.4 13 Sudoeste 23 Sudoeste 0 -- -- 33
2017-10-14 12:00:00 22.2 8 Sur 13 Sur 0 -- -- 43
2017-10-14 11:00:00 19.6 5 Sur 9 Sur 0 -- -- 55
2017-10-14 10:00:00 14.7 4 Norte 12 Nordeste 0 -- -- 68
2017-10-14 09:00:00 10.1 9 Nordeste 14 Nordeste 0 -- -- 83
2017-10-14 08:00:00 10.6 0 Calma 4 Norte 0 -- -- 78
2017-10-14 07:00:00 10.3 2 Sudeste 12 Norte 0 -- -- 76
2017-10-14 06:00:00 10.2 2 Norte 9 Noroeste 0 -- -- 73
2017-10-14 05:00:00 11.7 0 Calma 5 Norte 0 -- -- 71
2017-10-14 04:00:00 13 0 Calma 9 Norte 0 -- -- 67
2017-10-14 03:00:00 13.7 3 Norte 6 Norte 0 -- -- 64
2017-10-14 02:00:00 14.3 0 Calma 7 Norte 0 -- -- 61
2017-10-14 01:00:00 15.6 2 Sudeste 9 Sudeste 0 -- -- 59
2017-10-14 00:00:00 17 6 Sudeste 13 Este 0 -- -- 56
2017-10-13 23:00:00 17.1 10 Sudeste 14 Sudeste 0 -- -- 56
2017-10-13 22:00:00 17.9 14 Sudeste 18 Sudeste 0 -- -- 53
2017-10-13 21:00:00 19.7 12 Sudeste 26 Sudeste 0 -- -- 47
2017-10-13 20:00:00 22.2 6 Oeste 15 Oeste 0 -- -- 30
2017-10-13 19:00:00 25.5 8 Oeste 27 Sudoeste 0 -- -- 28
2017-10-13 18:00:00 27.2 14 Sudoeste 40 Oeste 0 -- -- 27
2017-10-13 17:00:00 28 19 Sudoeste 39 Sudoeste 0 -- -- 25
2017-10-13 16:00:00 28.1 7 Oeste 35 Sudoeste 0 -- -- 27
2017-10-13 15:00:00 26.5 18 Sudoeste 30 Sudoeste 0 -- -- 27
2017-10-13 14:00:00 25.3 15 Sudoeste 24 Sudoeste 0 -- -- 31
2017-10-13 13:00:00 23.3 13 Sudoeste 21 Sudoeste 0 -- -- 33
2017-10-13 12:00:00 22.5 9 Sur 15 Sur 0 -- -- 37
2017-10-13 11:00:00 20.1 6 Sur 8 Sur 0 -- -- 42
2017-10-13 10:00:00 16 2 Este 6 Norte 0 -- -- 51
2017-10-13 09:00:00 10.2 0 Calma 10 Norte 0 -- -- 64
2017-10-13 08:00:00 10.1 7 Norte 12 Nordeste 0 -- -- 64
2017-10-13 07:00:00 10.4 4 Nordeste 13 Norte 0 -- -- 64
2017-10-13 06:00:00 11 7 Nordeste 11 Nordeste 0 -- -- 64
2017-10-13 05:00:00 11.3 5 Nordeste 10 Norte 0 -- -- 64
2017-10-13 04:00:00 11.8 4 Sudeste 10 Norte 0 -- -- 62
2017-10-13 03:00:00 13.5 3 Este 13 Este 0 -- -- 59
2017-10-13 02:00:00 14 8 Este 12 Sudeste 0 -- -- 57
2017-10-13 01:00:00 14.8 5 Sudeste 9 Este 0 -- -- 55
2017-10-13 00:00:00 15.9 6 Sudeste 13 Sudeste 0 -- -- 50
2017-10-12 23:00:00 16.5 9 Sudeste 19 Sudeste 0 -- -- 47
2017-10-12 22:00:00 17.1 17 Sudeste 23 Sudeste 0 -- -- 46
2017-10-12 21:00:00 17.9 15 Sudeste 23 Sudeste 0 -- -- 40
2017-10-12 20:00:00 19.8 9 Este 19 Nordeste 0 -- -- 35
2017-10-12 19:00:00 24.7 7 Noroeste 18 Oeste 0 -- -- 23
2017-10-12 18:00:00 26.1 9 Oeste 24 Oeste 0 -- -- 21
2017-10-12 17:00:00 26.1 18 Oeste 30 Oeste 0 -- -- 21
2017-10-12 16:00:00 26.2 10 Oeste 22 Sudoeste 0 -- -- 20
2017-10-12 15:00:00 25.2 11 Oeste 24 Oeste 0 -- -- 20
2017-10-12 14:00:00 24.1 11 Sudoeste 22 Sudoeste 0 -- -- 21
2017-10-12 13:00:00 23.6 4 Sur 10 Sur 0 -- -- 25
2017-10-12 12:00:00 21.5 0 Calma 9 Norte 0 -- -- 29
2017-10-12 11:00:00 16.1 6 Norte 9 Norte 0 -- -- 40
2017-10-12 10:00:00 10.7 7 Norte 11 Norte 0 -- -- 54
2017-10-12 09:00:00 7.6 8 Norte 13 Norte 0 -- -- 63
2017-10-12 08:00:00 6.4 5 Nordeste 11 Norte 0 -- -- 67
2017-10-12 07:00:00 7.1 8 Norte 16 Norte 0 -- -- 65
2017-10-12 06:00:00 7.7 11 Nordeste 17 Nordeste 0 -- -- 65
2017-10-12 05:00:00 8.5 10 Nordeste 15 Nordeste 0 -- -- 64
2017-10-12 04:00:00 8.8 6 Norte 15 Norte 0 -- -- 66
2017-10-12 03:00:00 9 11 Norte 17 Nordeste 0 -- -- 64
2017-10-12 02:00:00 9.8 8 Norte 14 Norte 0 -- -- 63
2017-10-12 01:00:00 12.1 9 Nordeste 15 Norte 0 -- -- 58
2017-10-12 00:00:00 12 4 Nordeste 17 Norte 0 -- -- 57
2017-10-11 23:00:00 14.4 7 Nordeste 17 Nordeste 0 -- -- 53
2017-10-11 22:00:00 15.4 12 Norte 20 Nordeste 0 -- -- 54
2017-10-11 21:00:00 16.1 17 Nordeste 23 Nordeste 0 -- -- 48
2017-10-11 20:00:00 20.2 4 Oeste 8 Oeste 0 -- -- 28
2017-10-11 19:00:00 24.1 5 Oeste 21 Oeste 0 -- -- 24
2017-10-11 18:00:00 25.5 10 Oeste 28 Sudoeste 0 -- -- 22
2017-10-11 17:00:00 25.4 17 Oeste 27 Oeste 0 -- -- 21
2017-10-11 16:00:00 25.9 18 Oeste 28 Oeste 0 -- -- 20
2017-10-11 15:00:00 24 14 Noroeste 29 Norte 0 -- -- 23
2017-10-11 14:00:00 23.4 9 Noroeste 18 Noroeste 0 -- -- 22
2017-10-11 13:00:00 22.3 6 Noroeste 12 Noroeste 0 -- -- 23
2017-10-11 12:00:00 20.7 3 Norte 8 Norte 0 -- -- 29
2017-10-11 11:00:00 18.3 0 Calma 9 Norte 0 -- -- 34
2017-10-11 10:00:00 10.9 7 Nordeste 12 Nordeste 0 -- -- 51
2017-10-11 09:00:00 6.9 6 Norte 13 Norte 0 -- -- 61
2017-10-11 08:00:00 6.1 8 Norte 11 Norte 0 -- -- 61
2017-10-11 07:00:00 5.3 8 Norte 12 Norte 0 -- -- 65
2017-10-11 06:00:00 7.8 8 Nordeste 11 Nordeste 0 -- -- 59
2017-10-11 05:00:00 7.6 4 Nordeste 9 Norte 0 -- -- 58
2017-10-11 04:00:00 8.9 4 Nordeste 13 Nordeste 0 -- -- 54
2017-10-11 03:00:00 10.6 8 Norte 11 Norte 0 -- -- 50
2017-10-11 02:00:00 12.1 3 Norte 10 Sudeste 0 -- -- 45
2017-10-11 01:00:00 14 7 Sudeste 18 Sudeste 0 -- -- 41
2017-10-11 00:00:00 13.8 14 Sudeste 20 Sudeste 0 -- -- 42
2017-10-10 23:00:00 15.1 12 Sudeste 19 Sudeste 0 -- -- 40
2017-10-10 22:00:00 16.3 14 Sudeste 18 Sudeste 0 -- -- 38
2017-10-10 21:00:00 16.3 9 Sudeste 26 Sudeste 0 -- -- 38
2017-10-10 20:00:00 18.9 18 Sudeste 24 Este 0 -- -- 31
2017-10-10 19:00:00 24.7 9 Oeste 21 Oeste 0 -- -- 17
2017-10-10 18:00:00 26.4 6 Oeste 24 Sur 0 -- -- 17
2017-10-10 17:00:00 26.2 11 Oeste 26 Oeste 0 -- -- 17
2017-10-10 16:00:00 25.3 10 Noroeste 21 Norte 0 -- -- 19
2017-10-10 15:00:00 23.8 12 Noroeste 22 Sudeste 0 -- -- 19
2017-10-10 14:00:00 23.8 4 Noroeste 17 Sudoeste 0 -- -- 24
2017-10-10 13:00:00 22.3 3 Sudeste 12 Sur 0 -- -- 28
2017-10-10 12:00:00 20.5 4 Oeste 10 Oeste 0 -- -- 31
2017-10-10 11:00:00 16.1 6 Norte 15 Norte 0 -- -- 39
2017-10-10 10:00:00 11 10 Nordeste 14 Norte 0 -- -- 50
2017-10-10 09:00:00 6.8 9 Norte 15 Norte 0 -- -- 60
2017-10-10 08:00:00 5.8 9 Norte 22 Norte 0 -- -- 64
2017-10-10 07:00:00 7.1 12 Norte 18 Norte 0 -- -- 63
2017-10-10 06:00:00 6.1 13 Norte 18 Norte 0 -- -- 63
2017-10-10 05:00:00 7.5 7 Norte 14 Norte 0 -- -- 59
2017-10-10 04:00:00 7.4 14 Nordeste 20 Nordeste 0 -- -- 59
2017-10-10 03:00:00 8.7 8 Nordeste 13 Nordeste 0 -- -- 55
2017-10-10 02:00:00 8.6 5 Norte 8 Norte 0 -- -- 54
2017-10-10 01:00:00 10.3 2 Norte 9 Norte 0 -- -- 50
2017-10-10 00:00:00 11 3 Nordeste 14 Nordeste 0 -- -- 45
2017-10-09 23:00:00 12.3 13 Nordeste 18 Nordeste 0 -- -- 42
2017-10-09 22:00:00 13.8 2 Sur 15 Este 0 -- -- 39
2017-10-09 21:00:00 16.4 15 Este 18 Este 0 -- -- 35
2017-10-09 20:00:00 18 15 Este 22 Nordeste 0 -- -- 31
2017-10-09 19:00:00 21.7 14 Nordeste 20 Nordeste 0 -- -- 26
2017-10-09 18:00:00 23.4 8 Este 21 Nordeste 0 -- -- 25
2017-10-09 17:00:00 23.5 13 Nordeste 26 Nordeste 0 -- -- 24
2017-10-09 16:00:00 24 9 Nordeste 24 Nordeste 0 -- -- 24
2017-10-09 15:00:00 22.4 10 Nordeste 30 Nordeste 0 -- -- 25
2017-10-09 14:00:00 22 13 Nordeste 28 Nordeste 0 -- -- 25
2017-10-09 13:00:00 20.9 10 Norte 21 Norte 0 -- -- 27
2017-10-09 12:00:00 18.9 9 Nordeste 15 Nordeste 0 -- -- 26
2017-10-09 11:00:00 17 6 Norte 8 Norte 0 -- -- 30
2017-10-09 10:00:00 13 5 Nordeste 15 Nordeste 0 -- -- 37
2017-10-09 09:00:00 9.3 6 Nordeste 13 Nordeste 0 -- -- 43
2017-10-09 08:00:00 7.4 8 Norte 14 Nordeste 0 -- -- 47
2017-10-09 07:00:00 7.3 7 Nordeste 16 Nordeste 0 -- -- 48
2017-10-09 06:00:00 7 12 Nordeste 15 Nordeste 0 -- -- 51
2017-10-09 05:00:00 7.8 11 Norte 13 Norte 0 -- -- 49
2017-10-09 04:00:00 8.3 10 Norte 18 Norte 0 -- -- 49
2017-10-09 03:00:00 9.5 15 Nordeste 22 Norte 0 -- -- 48
2017-10-09 02:00:00 10 15 Nordeste 18 Nordeste 0 -- -- 48
2017-10-09 01:00:00 11.3 12 Norte 24 Nordeste 0 -- -- 45
2017-10-09 00:00:00 12.7 18 Nordeste 23 Norte 0 -- -- 41
2017-10-08 23:00:00 13.5 21 Nordeste 29 Nordeste 0 -- -- 38
2017-10-08 22:00:00 14.5 20 Nordeste 24 Nordeste 0 -- -- 35
2017-10-08 21:00:00 15.6 7 Noroeste 27 Nordeste 0 -- -- 27
2017-10-08 20:00:00 18.3 23 Nordeste 33 Nordeste 0 -- -- 23
2017-10-08 19:00:00 22 20 Nordeste 29 Nordeste 0 -- -- 19
2017-10-08 18:00:00 24.5 17 Nordeste 29 Nordeste 0 -- -- 15
2017-10-08 17:00:00 25.5 15 Nordeste 31 Nordeste 0 -- -- 14
2017-10-08 16:00:00 25.6 11 Noroeste 22 Norte 0 -- -- 13
2017-10-08 15:00:00 24.2 5 Nordeste 23 Noroeste 0 -- -- 16
2017-10-08 14:00:00 22.7 6 Norte 14 Norte 0 -- -- 18
2017-10-08 13:00:00 20.2 6 Norte 11 Noroeste 0 -- -- 22
2017-10-08 12:00:00 18.5 3 Noroeste 8 Sudoeste 0 -- -- 36
2017-10-08 11:00:00 15 4 Norte 11 Nordeste 0 -- -- 38
2017-10-08 10:00:00 9.7 10 Nordeste 14 Norte 0 -- -- 46
2017-10-08 09:00:00 6.7 8 Nordeste 13 Norte 0 -- -- 53
2017-10-08 08:00:00 4.6 8 Norte 13 Nordeste 0 -- -- 57
2017-10-08 07:00:00 5.1 8 Nordeste 15 Nordeste 0 -- -- 55
2017-10-08 06:00:00 4.4 3 Norte 16 Nordeste 0 -- -- 59
2017-10-08 05:00:00 6.6 9 Norte 15 Nordeste 0 -- -- 54
2017-10-08 04:00:00 6.9 5 Nordeste 10 Nordeste 0 -- -- 53
2017-10-08 03:00:00 7.3 4 Norte 7 Norte 0 -- -- 53
2017-10-08 02:00:00 7.4 2 Norte 4 Norte 0 -- -- 53
2017-10-08 01:00:00 8.1 4 Nordeste 14 Este 0 -- -- 50
2017-10-08 00:00:00 10.4 8 Este 11 Este 0 -- -- 49
2017-10-07 23:00:00 10 6 Nordeste 12 Norte 0 -- -- 48
2017-10-07 22:00:00 11.7 7 Nordeste 17 Este 0 -- -- 43
2017-10-07 21:00:00 14.2 14 Este 18 Sudeste 0 -- -- 37
2017-10-07 20:00:00 16.1 14 Este 20 Sudeste 0 -- -- 31
2017-10-07 19:00:00 22.9 4 Sur 14 Sur 0 -- -- 17
2017-10-07 18:00:00 24.2 4 Sudoeste 17 Sur 0 -- -- 16
2017-10-07 17:00:00 23.3 7 Sudoeste 18 Sudeste 0 -- -- 17
2017-10-07 16:00:00 22.5 9 Sur 18 Este 0 -- -- 18
2017-10-07 15:00:00 21.1 6 Sudoeste 19 Sur 0 -- -- 21
2017-10-07 14:00:00 18.7 9 Sur 25 Este 0 -- -- 24
2017-10-07 13:00:00 17.4 9 Sur 21 Sudeste 0 -- -- 24
2017-10-07 12:00:00 16.4 8 Sudeste 19 Este 0 -- -- 27
2017-10-07 11:00:00 15.4 7 Este 17 Nordeste 0 -- -- 26
2017-10-07 10:00:00 11.7 12 Norte 17 Norte 0 -- -- 25
2017-10-07 09:00:00 8.5 9 Nordeste 12 Este 0 -- -- 30
2017-10-07 08:00:00 6.3 6 Norte 19 Norte 0 -- -- 33
2017-10-07 07:00:00 7.6 2 Nordeste 9 Nordeste 0 -- -- 29
2017-10-07 06:00:00 7.2 2 Oeste 25 Norte 0 -- -- 31
2017-10-07 05:00:00 7.1 6 Norte 19 Norte 0 -- -- 37
2017-10-07 04:00:00 8.5 3 Oeste 32 Nordeste 0 -- -- 37
2017-10-07 03:00:00 8.3 16 Norte 36 Nordeste 0 -- -- 45
2017-10-07 02:00:00 9.3 21 Norte 35 Norte 0 -- -- 47
2017-10-07 01:00:00 9.9 33 Norte 50 Nordeste 0 -- -- 56
2017-10-07 00:00:00 10.5 34 Nordeste 60 Norte 0 -- -- 55
2017-10-06 23:00:00 10.8 32 Nordeste 47 Nordeste 0 -- -- 65
2017-10-06 22:00:00 11.4 25 Nordeste 50 Nordeste 0 -- -- 72
2017-10-06 21:00:00 12.3 41 Nordeste 59 Nordeste 0 -- -- 73
2017-10-06 20:00:00 14.2 50 Nordeste 65 Nordeste 0 -- -- 62
2017-10-06 19:00:00 16.9 36 Nordeste 46 Nordeste 0 -- -- 53
2017-10-06 18:00:00 18.6 33 Nordeste 49 Norte 0 -- -- 47
2017-10-06 17:00:00 19.4 42 Nordeste 55 Nordeste 0 -- -- 47
2017-10-06 16:00:00 19.6 45 Nordeste 59 Nordeste 0 -- -- 50
2017-10-06 15:00:00 19.6 39 Nordeste 54 Nordeste 0 -- -- 49
2017-10-06 14:00:00 18.8 39 Nordeste 52 Nordeste 0 -- -- 52
2017-10-06 13:00:00 18.4 46 Nordeste 60 Nordeste 0 -- -- 51
2017-10-06 12:00:00 17.7 45 Nordeste 57 Norte 0 -- -- 49
2017-10-06 11:00:00 16.4 43 Nordeste 54 Norte 0 -- -- 52
2017-10-06 10:00:00 15 33 Nordeste 44 Nordeste 0 -- -- 51
2017-10-06 09:00:00 13.4 31 Nordeste 39 Nordeste 0 -- -- 43
2017-10-06 08:00:00 10.7 23 Nordeste 29 Nordeste 0 -- -- 59
2017-10-06 07:00:00 11.2 18 Nordeste 34 Nordeste 0 -- -- 60
2017-10-06 06:00:00 9.7 17 Nordeste 19 Nordeste 0 -- -- 71
2017-10-06 05:00:00 9.9 9 Norte 17 Norte 0 -- -- 78
2017-10-06 04:00:00 11.3 10 Nordeste 40 Norte 0 -- -- 74
2017-10-06 03:00:00 13.2 31 Nordeste 44 Nordeste 0 -- -- 66
2017-10-06 02:00:00 12.8 26 Nordeste 35 Nordeste 0 -- -- 75
2017-10-06 01:00:00 12.5 19 Nordeste 43 Nordeste 0 -- -- 83
2017-10-06 00:00:00 13.5 35 Nordeste 51 Nordeste 0 -- -- 81
2017-10-05 23:00:00 14.2 31 Nordeste 44 Nordeste 0 -- -- 79
2017-10-05 22:00:00 14.9 26 Nordeste 40 Nordeste 0 -- -- 77
2017-10-05 21:00:00 16.5 31 Nordeste 45 Nordeste 0 -- -- 72
2017-10-05 20:00:00 18.4 34 Nordeste 52 Nordeste 0 -- -- 67
2017-10-05 19:00:00 22.1 36 Nordeste 44 Nordeste 0 -- -- 54
2017-10-05 18:00:00 24.7 32 Nordeste 43 Nordeste 0 -- -- 43
2017-10-05 17:00:00 27.8 18 Nordeste 30 Nordeste 0 -- -- 32
2017-10-05 16:00:00 29.7 6 Sur 25 Norte 0 -- -- 27
2017-10-05 15:00:00 26.7 11 Nordeste 21 Norte 0 -- -- 31
2017-10-05 14:00:00 26 8 Norte 22 Noroeste 0 -- -- 30
2017-10-05 13:00:00 23.8 13 Noroeste 20 Norte 0 -- -- 41
2017-10-05 12:00:00 21.1 7 Noroeste 14 Noroeste 0 -- -- 50
2017-10-05 11:00:00 19 8 Norte 13 Norte 0 -- -- 58
2017-10-05 10:00:00 15.9 5 Norte 8 Nordeste 0 -- -- 68
2017-10-05 09:00:00 11.6 0 Calma 8 Norte 0 -- -- 78
2017-10-05 08:00:00 9 4 Norte 10 Nordeste 0 -- -- 87
2017-10-05 07:00:00 10.9 11 Nordeste 16 Nordeste 0 -- -- 83
2017-10-05 06:00:00 10.9 3 Nordeste 13 Nordeste 0 -- -- 78
2017-10-05 05:00:00 11.7 6 Norte 8 Nordeste 0 -- -- 79
2017-10-05 04:00:00 12.2 2 Norte 7 Sudeste 0 -- -- 79
2017-10-05 03:00:00 14.3 4 Sudeste 13 Norte 0 -- -- 73
2017-10-05 02:00:00 14.2 7 Este 13 Este 0 -- -- 73
2017-10-05 01:00:00 14.1 5 Nordeste 17 Este 0 -- -- 74
2017-10-05 00:00:00 16.7 13 Este 17 Este 0 -- -- 67
2017-10-04 23:00:00 17.7 7 Sudeste 10 Sudeste 0 -- -- 65
2017-10-04 22:00:00 18.5 9 Sudeste 13 Sudeste 0 -- -- 62
2017-10-04 21:00:00 20.1 10 Sudeste 20 Sudeste 0 -- -- 57
2017-10-04 20:00:00 22.4 11 Sur 18 Sur 0 -- -- 46
2017-10-04 19:00:00 27.2 6 Sur 16 Sur 0 -- -- 37
2017-10-04 18:00:00 26.3 8 Sur 24 Sudoeste 0 -- -- 38
2017-10-04 17:00:00 27 15 Sur 30 Sur 0 -- -- 35
2017-10-04 16:00:00 26.4 14 Sur 30 Sur 0 -- -- 35
2017-10-04 15:00:00 25.3 18 Sudoeste 29 Sudoeste 0 -- -- 42
2017-10-04 14:00:00 23.7 15 Sudoeste 25 Sur 0 -- -- 49
2017-10-04 13:00:00 22.2 15 Sudoeste 26 Sudoeste 0 -- -- 54
2017-10-04 12:00:00 20.5 15 Sur 23 Sur 0 -- -- 57
2017-10-04 11:00:00 18.9 7 Sur 12 Sur 0 -- -- 63
2017-10-04 10:00:00 17.6 3 Este 10 Nordeste 0 -- -- 68
2017-10-04 09:00:00 12.2 2 Nordeste 5 Norte 0 -- -- 81
2017-10-04 08:00:00 8.8 3 Sudeste 7 Sudeste 0 -- -- 92
2017-10-04 07:00:00 9.4 2 Norte 8 Este 0 -- -- 90
2017-10-04 06:00:00 10.9 3 Este 8 Norte 0 -- -- 90
2017-10-04 05:00:00 10.5 3 Nordeste 20 Nordeste 0 -- -- 89
2017-10-04 04:00:00 10.8 11 Nordeste 19 Nordeste 0 -- -- 86
2017-10-04 03:00:00 11.4 6 Nordeste 14 Norte 0 -- -- 86
2017-10-04 02:00:00 12.3 5 Sudeste 9 Sudeste 0 -- -- 80
2017-10-04 01:00:00 13.5 4 Sudeste 10 Nordeste 0 -- -- 77
2017-10-04 00:00:00 14.1 4 Sur 27 Nordeste 0 -- -- 74
2017-10-03 23:00:00 15.6 23 Nordeste 35 Nordeste 0 -- -- 70
2017-10-03 22:00:00 16.4 25 Nordeste 41 Nordeste 0 -- -- 67
2017-10-03 21:00:00 17.1 33 Nordeste 44 Nordeste 0 -- -- 64
2017-10-03 20:00:00 18.5 34 Nordeste 48 Nordeste 0 -- -- 60
2017-10-03 19:00:00 20.3 32 Nordeste 42 Nordeste 0 -- -- 51
2017-10-03 18:00:00 22 34 Nordeste 41 Nordeste 0 -- -- 49
2017-10-03 17:00:00 25.1 18 Nordeste 38 Nordeste 0 -- -- 42
2017-10-03 16:00:00 25.4 8 Nordeste 22 Nordeste 0 -- -- 44
2017-10-03 15:00:00 23.8 10 Nordeste 21 Este 0 -- -- 50
2017-10-03 14:00:00 22.6 12 Norte 31 Nordeste 0 -- -- 52
2017-10-03 13:00:00 20.7 17 Nordeste 28 Norte 0 -- -- 58
2017-10-03 12:00:00 19.8 18 Nordeste 27 Nordeste 0 -- -- 63
2017-10-03 11:00:00 18.6 14 Norte 19 Nordeste 0 -- -- 68
2017-10-03 10:00:00 14 8 Norte 13 Norte 0 -- -- 82
2017-10-03 09:00:00 12 0 Calma 10 Nordeste 0 -- -- 91
2017-10-03 08:00:00 8.4 7 Norte 12 Norte 0 -- -- 97
2017-10-03 07:00:00 9.5 9 Norte 11 Nordeste 0 -- -- 97
2017-10-03 06:00:00 9.1 8 Norte 10 Nordeste 0 -- -- 97
2017-10-03 05:00:00 9.4 6 Norte 10 Nordeste 0 -- -- 95
2017-10-03 04:00:00 11.2 10 Norte 13 Nordeste 0 -- -- 96
2017-10-03 03:00:00 11.1 5 Norte 10 Norte 0 -- -- 94
2017-10-03 02:00:00 11.7 3 Norte 13 Norte 0 -- -- 91
2017-10-03 01:00:00 13.1 7 Nordeste 13 Norte 0 -- -- 89
2017-10-03 00:00:00 13.9 8 Norte 12 Nordeste 0 -- -- 85
2017-10-02 23:00:00 15.2 3 Norte 23 Este 0 -- -- 81
2017-10-02 22:00:00 16.8 5 Este 32 Este 0 -- -- 75
2017-10-02 21:00:00 17.2 15 Nordeste 23 Nordeste 0 -- -- 73
2017-10-02 20:00:00 19 17 Nordeste 30 Nordeste 0 -- -- 66
2017-10-02 19:00:00 21.5 24 Nordeste 34 Nordeste 0 -- -- 59
2017-10-02 18:00:00 22.3 25 Nordeste 38 Nordeste 0 -- -- 57
2017-10-02 17:00:00 22.2 22 Nordeste 43 Nordeste 0 -- -- 57
2017-10-02 16:00:00 22.8 29 Nordeste 52 Nordeste 0 -- -- 55
2017-10-02 15:00:00 22.3 31 Nordeste 43 Nordeste 0 -- -- 58
2017-10-02 14:00:00 21.3 32 Nordeste 42 Nordeste 0 -- -- 64
2017-10-02 13:00:00 19.6 16 Nordeste 27 Nordeste 0 -- -- 69
2017-10-02 12:00:00 19.4 10 Norte 15 Norte 0 -- -- 68
2017-10-02 11:00:00 16.6 6 Norte 9 Norte 0 -- -- 72
2017-10-02 10:00:00 15.4 0 Calma 6 Norte 0 -- -- 77
2017-10-02 09:00:00 14.7 5 Nordeste 12 Norte 0 -- -- 79
2017-10-02 08:00:00 14.4 10 Norte 15 Norte 0 -- -- 75
2017-10-02 07:00:00 13.8 6 Norte 14 Nordeste 0 -- -- 81
2017-10-02 06:00:00 14 13 Nordeste 22 Nordeste 0 -- -- 80
2017-10-02 05:00:00 13.2 13 Nordeste 19 Norte 0 -- -- 84
2017-10-02 04:00:00 12.4 14 Norte 19 Norte 0 -- -- 88
2017-10-02 03:00:00 12.4 5 Nordeste 11 Nordeste 0 -- -- 88
2017-10-02 02:00:00 13.1 7 Norte 10 Norte 0 -- -- 83
2017-10-02 01:00:00 13.7 8 Norte 13 Nordeste 0 -- -- 84
2017-10-02 00:00:00 14.9 5 Nordeste 8 Nordeste 0 -- -- 78
2017-10-01 23:00:00 15.4 4 Noroeste 13 Nordeste 0 -- -- 78
2017-10-01 22:00:00 15.7 10 Nordeste 13 Este 0 -- -- 76
2017-10-01 21:00:00 16.3 10 Nordeste 23 Nordeste 0 -- -- 72
2017-10-01 20:00:00 17.5 17 Nordeste 22 Nordeste 0 -- -- 67
2017-10-01 19:00:00 18.9 14 Nordeste 22 Norte 0 -- -- 63
2017-10-01 18:00:00 18.7 13 Nordeste 30 Norte 0 -- -- 63
2017-10-01 17:00:00 19.3 25 Nordeste 32 Norte 0 -- -- 60
2017-10-01 16:00:00 17.6 18 Nordeste 46 Nordeste 0 -- -- 70
2017-10-01 15:00:00 18.9 20 Norte 35 Norte 0 -- -- 60
2017-10-01 14:00:00 18.7 17 Norte 28 Norte 0 -- -- 59
2017-10-01 13:00:00 17.2 10 Norte 20 Nordeste 0 -- -- 65
2017-10-01 12:00:00 16.3 8 Nordeste 21 Norte 0 -- -- 66
2017-10-01 11:00:00 16 5 Norte 13 Norte 0 -- -- 67
2017-10-01 10:00:00 13.5 3 Norte 5 Norte 0 -- -- 82
2017-10-01 09:00:00 11 0 Calma 10 Norte 0 -- -- 92
2017-10-01 08:00:00 10.8 9 Nordeste 15 Nordeste 0 -- -- 92
2017-10-01 07:00:00 10.7 6 Nordeste 10 Norte 0 -- -- 91
2017-10-01 06:00:00 11.3 0 Calma 6 Norte 0 -- -- 88
2017-10-01 05:00:00 11.7 3 Norte 9 Norte 0 -- -- 88
2017-10-01 04:00:00 11.6 6 Norte 8 Nordeste 0 -- -- 88
2017-10-01 03:00:00 11.3 5 Norte 6 Norte 0 -- -- 90
2017-10-01 02:00:00 11.9 7 Nordeste 21 Nordeste 0 -- -- 88
2017-10-01 01:00:00 12.9 21 Nordeste 28 Nordeste 0 -- -- 86
2017-10-01 00:00:00 13.1 18 Nordeste 35 Nordeste 0 -- -- 87
2017-09-30 23:00:00 13.4 29 Nordeste 39 Nordeste 0 -- -- 88
2017-09-30 22:00:00 15 26 Nordeste 35 Nordeste 0 -- -- 82
2017-09-30 21:00:00 14.9 20 Nordeste 27 Nordeste 0 -- -- 82
2017-09-30 20:00:00 16.2 17 Nordeste 28 Nordeste 0 -- -- 74
2017-09-30 19:00:00 17.9 19 Nordeste 28 Nordeste 0 -- -- 67
2017-09-30 18:00:00 19.3 24 Nordeste 41 Nordeste 0 -- -- 60
2017-09-30 17:00:00 22.8 19 Noroeste 28 Noroeste 0 -- -- 40
2017-09-30 16:00:00 23.1 4 Oeste 22 Oeste 0 -- -- 42
2017-09-30 15:00:00 21.8 10 Norte 17 Oeste 0 -- -- 44
2017-09-30 14:00:00 21 4 Noroeste 13 Norte 0 -- -- 49
2017-09-30 13:00:00 19.5 3 Noroeste 8 Norte 0 -- -- 54
2017-09-30 12:00:00 17.7 4 Nordeste 10 Norte 0 -- -- 60
2017-09-30 11:00:00 16.6 4 Norte 8 Norte 0 -- -- 65
2017-09-30 10:00:00 14.7 0 Calma 5 Nordeste 0 -- -- 70
2017-09-30 09:00:00 13.3 7 Nordeste 14 Norte 0 -- -- 75
2017-09-30 08:00:00 11.7 0 Calma 7 Norte 0 -- -- 78
2017-09-30 07:00:00 11.9 5 Nordeste 10 Norte 0 -- -- 79
2017-09-30 06:00:00 11.8 5 Norte 10 Norte 0 -- -- 77
2017-09-30 05:00:00 12.6 8 Nordeste 14 Norte 0 -- -- 76
2017-09-30 04:00:00 14.6 0 Calma 15 Sudeste 0 -- -- 69
2017-09-30 03:00:00 15.5 6 Sudeste 12 Sudeste 0 -- -- 66
2017-09-30 02:00:00 17.2 8 Sudeste 18 Sudeste 0 -- -- 61
2017-09-30 01:00:00 17.1 13 Sudeste 15 Sudeste 0 -- -- 60
2017-09-30 00:00:00 18.1 12 Sudeste 15 Sudeste 0 -- -- 58
2017-09-29 23:00:00 18.4 10 Este 12 Este 0 -- -- 58
2017-09-29 22:00:00 19.1 8 Este 18 Este 0 -- -- 62
2017-09-29 21:00:00 20.2 14 Nordeste 22 Nordeste 0 -- -- 59
2017-09-29 20:00:00 22.1 18 Nordeste 30 Noroeste 0 -- -- 49
2017-09-29 19:00:00 24.6 14 Noroeste 24 Noroeste 0 -- -- 31
2017-09-29 18:00:00 26 13 Noroeste 22 Oeste 0 -- -- 28
2017-09-29 17:00:00 26.6 6 Noroeste 18 Noroeste 0 -- -- 28
2017-09-29 16:00:00 27.2 5 Noroeste 23 Oeste 0 -- -- 28
2017-09-29 15:00:00 25.4 8 Noroeste 23 Oeste 0 -- -- 30
2017-09-29 14:00:00 25.6 8 Oeste 17 Sudoeste 0 -- -- 34
2017-09-29 13:00:00 23.8 7 Oeste 14 Oeste 0 -- -- 37
2017-09-29 12:00:00 22.4 6 Noroeste 18 Noroeste 0 -- -- 41
2017-09-29 11:00:00 21.2 5 Sudoeste 11 Sudoeste 0 -- -- 49
2017-09-29 10:00:00 19 4 Sur 5 Sudoeste 0 -- -- 55
2017-09-29 09:00:00 13.7 0 Calma 2 Sudoeste 0 -- -- 78
2017-09-29 08:00:00 10.1 0 Calma 8 Norte 0 -- -- 89
2017-09-29 07:00:00 10.4 2 Nordeste 9 Norte 0 -- -- 86
2017-09-29 06:00:00 11.4 7 Nordeste 10 Nordeste 0 -- -- 82
2017-09-29 05:00:00 12.7 4 Este 6 Sudoeste 0 -- -- 76
2017-09-29 04:00:00 12.5 3 Oeste 12 Sudeste 0 -- -- 78
2017-09-29 03:00:00 14.2 5 Sudeste 8 Sudeste 0 -- -- 72
2017-09-29 02:00:00 14.1 3 Norte 9 Este 0 -- -- 74
2017-09-29 01:00:00 16.6 8 Sudeste 18 Sudeste 0 -- -- 63
2017-09-29 00:00:00 17.2 7 Sur 13 Sur 0 -- -- 62
2017-09-28 23:00:00 18 13 Sur 29 Sur 0 -- -- 59
2017-09-28 22:00:00 18.3 13 Sudeste 30 Sudeste 0 -- -- 58
2017-09-28 21:00:00 19.2 20 Sudeste 31 Sudeste 0 -- -- 52
2017-09-28 20:00:00 21.1 19 Sudeste 28 Sudeste 0 -- -- 45
2017-09-28 19:00:00 25.4 10 Sur 21 Sur 0 -- -- 27
2017-09-28 18:00:00 27.1 12 Sudoeste 21 Sur 0 -- -- 25
2017-09-28 17:00:00 26.7 12 Sudoeste 26 Sudoeste 0 -- -- 24
2017-09-28 16:00:00 27.2 8 Sur 25 Sudoeste 0 -- -- 24
2017-09-28 15:00:00 25.4 11 Oeste 26 Sudoeste 0 -- -- 27
2017-09-28 14:00:00 24.5 14 Sudoeste 23 Sudoeste 0 -- -- 30
2017-09-28 13:00:00 23.3 8 Sur 17 Sudoeste 0 -- -- 36
2017-09-28 12:00:00 21.2 6 Sur 13 Sudoeste 0 -- -- 49
2017-09-28 11:00:00 21 2 Sudeste 6 Sur 0 -- -- 51
2017-09-28 10:00:00 17.8 3 Sur 5 Sudeste 0 -- -- 59
2017-09-28 09:00:00 10.7 5 Nordeste 6 Nordeste 0 -- -- 81
2017-09-28 08:00:00 9.1 4 Nordeste 13 Nordeste 0 -- -- 86
2017-09-28 07:00:00 10.2 7 Nordeste 9 Nordeste 0 -- -- 83
2017-09-28 06:00:00 12.1 5 Sur 7 Sur 0 -- -- 78
2017-09-28 05:00:00 12 4 Norte 6 Norte 0 -- -- 77
2017-09-28 04:00:00 13.5 4 Norte 9 Norte 0 -- -- 73
2017-09-28 03:00:00 13.2 3 Sur 8 Sudeste 0 -- -- 72
2017-09-28 02:00:00 15.4 8 Sur 18 Sudeste 0 -- -- 66
2017-09-28 01:00:00 16.3 12 Sudeste 19 Sudeste 0 -- -- 63
2017-09-28 00:00:00 16.3 8 Sudeste 14 Sudeste 0 -- -- 64
2017-09-27 23:00:00 16.5 4 Sur 18 Sudeste 0 -- -- 64
2017-09-27 22:00:00 17.4 9 Sudeste 28 Sudeste 0 -- -- 61
2017-09-27 21:00:00 18.4 22 Sudeste 37 Sudeste 0 -- -- 57
2017-09-27 20:00:00 21 15 Sudeste 31 Sudeste 0 -- -- 47
2017-09-27 19:00:00 24.9 14 Oeste 22 Oeste 0 -- -- 30
2017-09-27 18:00:00 26.4 8 Oeste 27 Oeste 0 -- -- 27
2017-09-27 17:00:00 26.1 15 Oeste 30 Sur 0 -- -- 28
2017-09-27 16:00:00 26.2 5 Noroeste 28 Sur 0 -- -- 28
2017-09-27 15:00:00 24.3 6 Noroeste 22 Sur 0 -- -- 33
2017-09-27 14:00:00 22.4 12 Oeste 23 Oeste 0 -- -- 41
2017-09-27 13:00:00 21.8 10 Oeste 20 Noroeste 0 -- -- 45
2017-09-27 12:00:00 20.2 7 Oeste 22 Sur 0 -- -- 55
2017-09-27 11:00:00 19.7 3 Sur 9 Este 0 -- -- 59
2017-09-27 10:00:00 15.6 3 Norte 8 Nordeste 0 -- -- 65
2017-09-27 09:00:00 9.5 8 Nordeste 10 Nordeste 0 -- -- 79
2017-09-27 08:00:00 7.8 4 Nordeste 9 Nordeste 0 -- -- 85
2017-09-27 07:00:00 7.9 5 Nordeste 6 Nordeste 0 -- -- 85
2017-09-27 06:00:00 8.7 3 Norte 7 Norte 0 -- -- 80
2017-09-27 05:00:00 10.1 0 Calma 12 Sudeste 0 -- -- 75
2017-09-27 04:00:00 9.8 3 Este 12 Este 0 -- -- 76
2017-09-27 03:00:00 10.6 10 Sudeste 12 Este 0 -- -- 74
2017-09-27 02:00:00 11.3 3 Este 14 Sudeste 0 -- -- 71
2017-09-27 01:00:00 12.4 10 Este 12 Sudeste 0 -- -- 69
2017-09-27 00:00:00 13.8 8 Sudeste 17 Sudeste 0 -- -- 64
2017-09-26 23:00:00 13.9 14 Sudeste 18 Sudeste 0 -- -- 66
2017-09-26 22:00:00 14.4 4 Norte 29 Sudeste 0 -- -- 63
2017-09-26 21:00:00 15.8 19 Sudeste 28 Sudeste 0 -- -- 57
2017-09-26 20:00:00 18.7 21 Sudeste 29 Sudeste 0 -- -- 44
2017-09-26 19:00:00 23.5 4 Noroeste 11 Sudoeste 0 -- -- 25
2017-09-26 18:00:00 24.5 5 Oeste 17 Nordeste 0 -- -- 29
2017-09-26 17:00:00 24.1 5 Oeste 15 Sudoeste 0 -- -- 31
2017-09-26 16:00:00 23.1 10 Sur 30 Sudoeste 0 -- -- 35
2017-09-26 15:00:00 21.2 12 Sudoeste 26 Sudeste 0 -- -- 41
2017-09-26 14:00:00 19.2 6 Norte 13 Norte 0 -- -- 46
2017-09-26 13:00:00 18.7 4 Sur 15 Sudoeste 0 -- -- 48
2017-09-26 12:00:00 17.6 7 Sudoeste 14 Sudoeste 0 -- -- 54
2017-09-26 11:00:00 16.6 6 Sur 13 Este 0 -- -- 59
2017-09-26 10:00:00 13.8 10 Nordeste 14 Este 0 -- -- 69
2017-09-26 09:00:00 10.8 10 Nordeste 17 Nordeste 0 -- -- 82
2017-09-26 08:00:00 8.7 16 Nordeste 24 Nordeste 0 -- -- 87
2017-09-26 07:00:00 8.1 14 Nordeste 18 Nordeste 0 -- -- 91
2017-09-26 06:00:00 8.6 12 Nordeste 18 Nordeste 0 -- -- 91
2017-09-26 05:00:00 9.4 10 Nordeste 25 Nordeste 0 -- -- 88
2017-09-26 04:00:00 9.9 17 Nordeste 24 Nordeste 0 -- -- 87
2017-09-26 03:00:00 9.9 8 Nordeste 22 Nordeste 0 -- -- 85
2017-09-26 02:00:00 11.1 13 Norte 27 Nordeste 0 -- -- 81
2017-09-26 01:00:00 11.5 20 Nordeste 31 Nordeste 0 -- -- 79
2017-09-26 00:00:00 11.8 17 Nordeste 36 Nordeste 0 -- -- 79
2017-09-25 23:00:00 12.3 28 Nordeste 47 Nordeste 0 -- -- 78
2017-09-25 22:00:00 13.2 37 Nordeste 58 Nordeste 0 -- -- 74
2017-09-25 21:00:00 13.8 45 Nordeste 60 Nordeste 0 -- -- 73
2017-09-25 20:00:00 15.6 37 Nordeste 49 Nordeste 0 -- -- 61
2017-09-25 19:00:00 17.4 35 Nordeste 47 Nordeste 0 -- -- 53
2017-09-25 18:00:00 18.7 35 Nordeste 47 Nordeste 0 -- -- 52
2017-09-25 17:00:00 20.1 25 Nordeste 39 Norte 0 -- -- 48
2017-09-25 16:00:00 21.9 18 Noroeste 30 Noroeste 0 -- -- 33
2017-09-25 15:00:00 21 20 Noroeste 34 Noroeste 0 -- -- 37
2017-09-25 14:00:00 20.4 23 Noroeste 36 Noroeste 0 -- -- 39
2017-09-25 13:00:00 19.8 22 Noroeste 36 Noroeste 0 -- -- 47
2017-09-25 12:00:00 19.1 24 Norte 42 Norte 0 -- -- 53
2017-09-25 11:00:00 18.8 9 Nordeste 20 Norte 0 -- -- 49
2017-09-25 10:00:00 17.2 7 Norte 16 Norte 0 -- -- 55
2017-09-25 09:00:00 14.4 3 Nordeste 11 Norte 0 -- -- 53
2017-09-25 08:00:00 12.1 4 Nordeste 13 Norte 0 -- -- 55
2017-09-25 07:00:00 13.6 5 Norte 12 Noroeste 0 -- -- 50
2017-09-25 06:00:00 14.2 4 Norte 18 Norte 0 -- -- 48
2017-09-25 05:00:00 15.4 5 Norte 22 Nordeste 0 -- -- 45
2017-09-25 04:00:00 16 4 Nordeste 24 Noroeste 0 -- -- 45
2017-09-25 03:00:00 16.5 19 Noroeste 31 Noroeste 0 -- -- 44
2017-09-25 02:00:00 17.3 18 Noroeste 28 Noroeste 0 -- -- 44
2017-09-25 01:00:00 18.8 13 Oeste 18 Noroeste 0 -- -- 42
2017-09-25 00:00:00 17.9 3 Oeste 9 Oeste 0 -- -- 43
2017-09-24 23:00:00 19.3 2 Oeste 5 Noroeste 0 -- -- 41
2017-09-24 22:00:00 19.8 2 Sudeste 11 Oeste 0 -- -- 37
2017-09-24 21:00:00 20.5 3 Noroeste 12 Noroeste 0 -- -- 34
2017-09-24 20:00:00 23 10 Noroeste 17 Oeste 0 -- -- 30
2017-09-24 19:00:00 26.4 11 Oeste 29 Noroeste 0 -- -- 26
2017-09-24 18:00:00 26 19 Oeste 28 Noroeste 0 -- -- 28
2017-09-24 17:00:00 27.5 14 Oeste 30 Noroeste 0 -- -- 27
2017-09-24 16:00:00 26 22 Noroeste 33 Noroeste 0 -- -- 29
2017-09-24 15:00:00 25 15 Noroeste 33 Oeste 0 -- -- 31
2017-09-24 14:00:00 25.1 21 Oeste 32 Noroeste 0 -- -- 32
2017-09-24 13:00:00 24.1 17 Oeste 26 Oeste 0 -- -- 34
2017-09-24 12:00:00 22.3 3 Oeste 12 Noroeste 0 -- -- 41
2017-09-24 11:00:00 21.6 2 Este 9 Sudeste 0 -- -- 48
2017-09-24 10:00:00 15.1 6 Nordeste 12 Nordeste 0 -- -- 67
2017-09-24 09:00:00 10.8 6 Nordeste 11 Nordeste 0 -- -- 85
2017-09-24 08:00:00 8.3 2 Norte 7 Nordeste 0 -- -- 87
2017-09-24 07:00:00 9.1 4 Norte 8 Norte 0 -- -- 90
2017-09-24 06:00:00 10.3 10 Nordeste 15 Nordeste 0 -- -- 86
2017-09-24 05:00:00 10.5 9 Norte 13 Norte 0 -- -- 84
2017-09-24 04:00:00 11.2 4 Este 13 Norte 0 -- -- 81
2017-09-24 03:00:00 12.6 3 Norte 8 Este 0 -- -- 75
2017-09-24 02:00:00 12.9 3 Norte 12 Sudeste 0 -- -- 74
2017-09-24 01:00:00 15.3 10 Sudeste 15 Este 0 -- -- 68
2017-09-24 00:00:00 15.9 13 Este 16 Sudeste 0 -- -- 67
2017-09-23 23:00:00 15.3 5 Sudeste 13 Este 0 -- -- 69
2017-09-23 22:00:00 15.4 6 Nordeste 18 Este 0 -- -- 66
2017-09-23 21:00:00 18 12 Nordeste 32 Nordeste 0 -- -- 58
2017-09-23 20:00:00 21.1 18 Nordeste 29 Nordeste 0 -- -- 51
2017-09-23 19:00:00 25.2 11 Noroeste 30 Norte 0 -- -- 30
2017-09-23 18:00:00 25.3 9 Noroeste 24 Noroeste 0 -- -- 32
2017-09-23 17:00:00 24.7 18 Sudoeste 29 Sudoeste 0 -- -- 31
2017-09-23 16:00:00 24.2 14 Sur 30 Sudoeste 0 -- -- 37
2017-09-23 15:00:00 24.1 15 Sudoeste 23 Sudoeste 0 -- -- 38
2017-09-23 14:00:00 22.8 10 Sudoeste 23 Sudoeste 0 -- -- 44
2017-09-23 13:00:00 20 13 Sudoeste 28 Sudoeste 0 -- -- 51
2017-09-23 12:00:00 18.9 7 Sur 12 Sur 0 -- -- 59
2017-09-23 11:00:00 13.9 5 Sur 11 Sur 0 -- -- 91
2017-09-23 10:00:00 9.9 6 Sur 9 Sur 0.2 -- -- 97
2017-09-23 09:00:00 9.4 3 Sudoeste 5 Noroeste 0 -- -- 98
2017-09-23 08:00:00 7.9 2 Norte 4 Norte 0 -- -- 97
2017-09-23 07:00:00 6.9 0 Calma 5 Este 0 -- -- 98
2017-09-23 06:00:00 8.4 2 Sudeste 8 Nordeste 0 -- -- 97
2017-09-23 05:00:00 8.4 5 Nordeste 9 Norte 0 -- -- 97
2017-09-23 04:00:00 8.9 7 Norte 12 Nordeste 0 -- -- 94
2017-09-23 03:00:00 9.8 8 Norte 15 Este 0 -- -- 94
2017-09-23 02:00:00 11.6 13 Sudeste 18 Sudeste 0 -- -- 92
2017-09-23 01:00:00 11.9 7 Sur 24 Sudeste 0 -- -- 91
2017-09-23 00:00:00 12.4 19 Este 28 Sudeste 0 -- -- 90
2017-09-22 23:00:00 12.4 13 Sudeste 22 Sudeste 0 -- -- 88
2017-09-22 22:00:00 13.3 14 Sudeste 28 Sudeste 0 -- -- 83
2017-09-22 21:00:00 14 17 Sudeste 33 Sudeste 0 -- -- 75
2017-09-22 20:00:00 15.4 25 Sudeste 33 Sudeste 0 -- -- 66
2017-09-22 19:00:00 16.1 19 Sudeste 28 Sudeste 0 -- -- 64
2017-09-22 18:00:00 16.7 21 Sudeste 31 Este 0 -- -- 64
2017-09-22 17:00:00 17 23 Este 36 Sudeste 0 -- -- 64
2017-09-22 16:00:00 18 25 Sudeste 38 Sudeste 0 -- -- 60
2017-09-22 15:00:00 19 25 Sudeste 36 Sudeste 0 -- -- 53
2017-09-22 14:00:00 18 23 Sudeste 35 Sudeste 0 -- -- 55
2017-09-22 13:00:00 17.9 14 Este 32 Este 0 -- -- 57
2017-09-22 12:00:00 16.6 27 Sudeste 37 Sudeste 0 -- -- 62
2017-09-22 11:00:00 17.1 13 Este 28 Nordeste 0 -- -- 60
2017-09-22 10:00:00 13.2 19 Norte 45 Sudeste 0 -- -- 74
2017-09-22 09:00:00 12.5 11 Este 18 Este 0 -- -- 72
2017-09-22 08:00:00 12 0 Calma 15 Sudeste 0 -- -- 71
2017-09-22 07:00:00 12.2 14 Este 17 Este 0 -- -- 70
2017-09-22 06:00:00 12.6 6 Nordeste 10 Este 0 -- -- 71
2017-09-22 05:00:00 13.6 5 Este 19 Nordeste 0 -- -- 66
2017-09-22 04:00:00 13.8 8 Nordeste 24 Nordeste 0 -- -- 69
2017-09-22 03:00:00 13.9 9 Nordeste 16 Norte 0 -- -- 72
2017-09-22 02:00:00 14.2 12 Norte 16 Noroeste 0 -- -- 72
2017-09-22 01:00:00 14.4 12 Norte 17 Noroeste 0 -- -- 70
2017-09-22 00:00:00 15 6 Nordeste 27 Nordeste 0 -- -- 63
2017-09-21 23:00:00 16.6 22 Nordeste 32 Nordeste 0 -- -- 54
2017-09-21 22:00:00 17.2 22 Nordeste 29 Nordeste 0 -- -- 50
2017-09-21 21:00:00 18.5 17 Nordeste 26 Este 0 -- -- 49
2017-09-21 20:00:00 20.4 21 Este 35 Sudeste 0 -- -- 44
2017-09-21 19:00:00 25.6 12 Sudoeste 27 Oeste 0 -- -- 32
2017-09-21 18:00:00 26.3 21 Oeste 32 Oeste 0 -- -- 23
2017-09-21 17:00:00 27.1 20 Sudoeste 31 Sudoeste 0 -- -- 23
2017-09-21 16:00:00 27.6 5 Este 23 Sur 0 -- -- 24
2017-09-21 15:00:00 25.8 15 Sudoeste 28 Sur 0 -- -- 26
2017-09-21 14:00:00 25.3 14 Sudoeste 24 Sudoeste 0 -- -- 25
2017-09-21 13:00:00 23.8 5 Sur 12 Sur 0 -- -- 28
2017-09-21 12:00:00 23.4 6 Sudoeste 10 Sudoeste 0 -- -- 28
2017-09-21 11:00:00 21 3 Sur 7 Sudoeste 0 -- -- 32
2017-09-21 10:00:00 16.2 2 Noroeste 8 Norte 0 -- -- 36
2017-09-21 09:00:00 9.1 7 Norte 10 Nordeste 0 -- -- 50
2017-09-21 08:00:00 8.9 6 Nordeste 13 Norte 0 -- -- 46
2017-09-21 07:00:00 7.3 4 Nordeste 14 Nordeste 0 -- -- 51
2017-09-21 06:00:00 8.5 10 Nordeste 16 Norte 0 -- -- 47
2017-09-21 05:00:00 9.7 0 Calma 8 Nordeste 0 -- -- 40
2017-09-21 04:00:00 9.8 5 Nordeste 12 Norte 0 -- -- 41
2017-09-21 03:00:00 10.5 5 Norte 8 Norte 0 -- -- 39
2017-09-21 02:00:00 12.5 5 Sudeste 14 Sudeste 0 -- -- 34
2017-09-21 01:00:00 14.1 12 Sudeste 17 Sudeste 0 -- -- 32
2017-09-21 00:00:00 14.6 14 Sudeste 20 Sudeste 0 -- -- 32
2017-09-20 23:00:00 15.3 16 Sudeste 20 Sudeste 0 -- -- 31
2017-09-20 22:00:00 15.9 15 Este 21 Este 0 -- -- 33
2017-09-20 21:00:00 17.4 20 Este 26 Sudeste 0 -- -- 32
2017-09-20 20:00:00 21.6 12 Sudeste 21 Sudeste 0 -- -- 27
2017-09-20 19:00:00 25.4 7 Noroeste 20 Sudoeste 0 -- -- 22
2017-09-20 18:00:00 25.7 13 Oeste 22 Oeste 0 -- -- 22
2017-09-20 17:00:00 26 9 Oeste 24 Oeste 0 -- -- 22
2017-09-20 16:00:00 25.7 6 Noroeste 26 Oeste 0 -- -- 22
2017-09-20 15:00:00 24.1 8 Oeste 18 Sudeste 0 -- -- 23
2017-09-20 14:00:00 22.6 5 Sur 20 Oeste 0 -- -- 23
2017-09-20 13:00:00 22.1 9 Sudoeste 15 Oeste 0 -- -- 24
2017-09-20 12:00:00 19 6 Oeste 13 Oeste 0 -- -- 27
2017-09-20 11:00:00 16.1 2 Norte 8 Norte 0 -- -- 36
2017-09-20 10:00:00 11.1 3 Nordeste 7 Norte 0 -- -- 49
2017-09-20 09:00:00 5.3 5 Norte 11 Nordeste 0 -- -- 72
2017-09-20 08:00:00 3 6 Norte 10 Nordeste 0 -- -- 80
2017-09-20 07:00:00 3.3 4 Norte 5 Norte 0 -- -- 79
2017-09-20 06:00:00 4.3 3 Nordeste 8 Nordeste 0 -- -- 78
2017-09-20 05:00:00 5.2 5 Nordeste 11 Norte 0 -- -- 77
2017-09-20 04:00:00 5.4 2 Nordeste 8 Norte 0 -- -- 72
2017-09-20 03:00:00 6.9 3 Norte 8 Nordeste 0 -- -- 71
2017-09-20 02:00:00 8.4 2 Sur 8 Norte 0 -- -- 66
2017-09-20 01:00:00 8.6 8 Norte 15 Nordeste 0 -- -- 65
2017-09-20 00:00:00 9.3 12 Norte 21 Norte 0 -- -- 65